Time;durP1;ratioP1;P1;durP2;ratioP2;P2;SDS_P1;SDS_P2;PMS_P1;PMS_P2;Temp;Humidity;BMP_temperature;BMP_pressure;BME280_temperature;BME280_humidity;BME280_pressure;Samples;Min_cycle;Max_cycle;Signal;HPM_P1;HPM_P2
2022/04/05 00:02:44;;;;;;;11.18;8.70;;;;;;;;;;10449409;27;20062;-62
2022/04/05 00:07:43;;;;;;;13.40;9.07;;;;;;;;;;10486390;27;20035;-61
2022/04/05 00:12:41;;;;;;;9.77;8.70;;;;;;;;;;10485109;27;20050;-61
2022/04/05 00:17:40;;;;;;;12.52;8.65;;;;;;;;;;10472075;27;20086;-61
2022/04/05 00:22:40;;;;;;;11.02;9.15;;;;;;;;;;10472016;27;20071;-61
2022/04/05 00:27:38;;;;;;;13.00;9.68;;;;;;;;;;10471665;27;20051;-61
2022/04/05 00:32:36;;;;;;;13.32;9.30;;;;;;;;;;10484359;27;20073;-61
2022/04/05 00:37:34;;;;;;;10.85;9.25;;;;;;;;;;10484956;27;20316;-61
2022/04/05 00:42:36;;;;;;;9.88;8.88;;;;;;;;;;10483809;27;20070;-61
2022/04/05 00:47:35;;;;;;;9.93;8.93;;;;;;;;;;10473267;27;20074;-61
2022/04/05 00:52:33;;;;;;;12.88;9.88;;;;;;;;;;10470795;27;20067;-61
2022/04/05 00:57:32;;;;;;;11.25;10.07;;;;;;;;;;10471198;27;20534;-61
2022/04/05 01:02:36;;;;;;;10.80;9.70;;;;;;;;;;10470101;27;20082;-61
2022/04/05 01:07:35;;;;;;;11.05;9.27;;;;;;;;;;10470151;27;20058;-61
2022/04/05 01:12:34;;;;;;;9.90;8.90;;;;;;;;;;10470924;27;20043;-61
2022/04/05 01:17:34;;;;;;;13.02;9.90;;;;;;;;;;10470230;27;20078;-59
2022/04/05 01:22:32;;;;;;;13.57;10.05;;;;;;;;;;10447331;27;20081;-61
2022/04/05 01:27:32;;;;;;;11.50;10.30;;;;;;;;;;10469473;27;20073;-61
2022/04/05 01:32:31;;;;;;;13.55;9.77;;;;;;;;;;10467561;27;20538;-60
2022/04/05 01:37:30;;;;;;;12.43;10.27;;;;;;;;;;10468457;27;20526;-61
2022/04/05 01:42:28;;;;;;;13.15;10.90;;;;;;;;;;10469417;27;20071;-61
2022/04/05 01:47:28;;;;;;;11.35;10.25;;;;;;;;;;10468372;27;20035;-61
2022/04/05 01:52:26;;;;;;;11.90;9.77;;;;;;;;;;10469135;27;20532;-61
2022/04/05 01:57:24;;;;;;;12.25;9.07;;;;;;;;;;10468940;27;20066;-61
2022/04/05 02:02:23;;;;;;;13.88;10.65;;;;;;;;;;10468778;27;20419;-61
2022/04/05 02:07:23;;;;;;;11.02;9.82;;;;;;;;;;10467727;27;20062;-61
2022/04/05 02:12:21;;;;;;;13.60;9.65;;;;;;;;;;10449368;27;20043;-61
2022/04/05 02:17:19;;;;;;;16.30;10.40;;;;;;;;;;10468219;27;20086;-62
2022/04/05 02:22:20;;;;;;;12.25;10.40;;;;;;;;;;10447912;27;20051;-62
2022/04/05 02:27:23;;;;;;;10.30;9.27;;;;;;;;;;10448603;27;20142;-61
2022/04/05 02:32:22;;;;;;;13.15;10.60;;;;;;;;;;10426595;27;20301;-61
2022/04/05 02:37:22;;;;;;;11.63;10.35;;;;;;;;;;10447865;27;20082;-61
2022/04/05 02:42:26;;;;;;;11.85;9.57;;;;;;;;;;10447855;27;20075;-61
2022/04/05 02:47:26;;;;;;;11.88;9.98;;;;;;;;;;10427092;27;20464;-61
2022/04/05 02:52:25;;;;;;;14.18;10.75;;;;;;;;;;10447693;27;20070;-61
2022/04/05 02:57:30;;;;;;;10.90;9.82;;;;;;;;;;10467314;27;20077;-61
2022/04/05 03:02:31;;;;;;;10.70;9.60;;;;;;;;;;10467133;27;20046;-61
2022/04/05 03:07:29;;;;;;;9.98;8.98;;;;;;;;;;10445968;27;20483;-61
2022/04/05 03:12:29;;;;;;;11.55;10.35;;;;;;;;;;10446957;27;20054;-61
2022/04/05 03:17:29;;;;;;;10.68;9.52;;;;;;;;;;10464960;27;20083;-61
2022/04/05 03:22:27;;;;;;;11.55;10.35;;;;;;;;;;10442489;27;20051;-61
2022/04/05 03:27:26;;;;;;;12.80;9.88;;;;;;;;;;10442601;27;20086;-61
2022/04/05 03:32:25;;;;;;;12.00;10.15;;;;;;;;;;10443374;27;20086;-62
2022/04/05 03:37:25;;;;;;;12.02;10.20;;;;;;;;;;10433463;27;20071;-61
2022/04/05 03:42:24;;;;;;;11.77;10.52;;;;;;;;;;10460863;27;20027;-61
2022/04/05 03:47:23;;;;;;;11.65;9.95;;;;;;;;;;10424966;27;20058;-61
2022/04/05 03:52:21;;;;;;;12.18;10.20;;;;;;;;;;10462162;27;20051;-62
2022/04/05 03:57:22;;;;;;;13.18;11.05;;;;;;;;;;10457861;27;20085;-61
2022/04/05 04:02:25;;;;;;;10.88;9.77;;;;;;;;;;10464476;27;20078;-61
2022/04/05 04:07:28;;;;;;;13.35;10.32;;;;;;;;;;10445819;27;20489;-61
2022/04/05 04:12:27;;;;;;;11.65;10.45;;;;;;;;;;10453517;27;20439;-62
2022/04/05 04:17:26;;;;;;;15.32;11.05;;;;;;;;;;10452085;27;20064;-62
2022/04/05 04:22:26;;;;;;;14.68;10.77;;;;;;;;;;10452457;27;20074;-61
2022/04/05 04:27:26;;;;;;;13.90;11.70;;;;;;;;;;10469936;27;20117;-62
2022/04/05 04:32:26;;;;;;;11.32;9.63;;;;;;;;;;10473487;27;20069;-60
2022/04/05 04:37:24;;;;;;;11.82;10.05;;;;;;;;;;10475620;27;20458;-62
2022/04/05 04:42:22;;;;;;;11.70;9.82;;;;;;;;;;10463383;27;20069;-60
2022/04/05 04:47:20;;;;;;;14.52;10.95;;;;;;;;;;10470294;27;20071;-60
2022/04/05 04:52:20;;;;;;;11.63;10.25;;;;;;;;;;10446596;27;20051;-60
2022/04/05 04:57:18;;;;;;;16.70;10.32;;;;;;;;;;10467005;27;20078;-61
2022/04/05 05:02:17;;;;;;;14.13;11.32;;;;;;;;;;10471812;27;20522;-60
2022/04/05 05:07:15;;;;;;;11.23;10.05;;;;;;;;;;10463835;27;20074;-60
2022/04/05 05:12:15;;;;;;;12.07;10.60;;;;;;;;;;10464902;27;20479;-59
2022/04/05 05:17:13;;;;;;;12.23;10.57;;;;;;;;;;10440228;27;20483;-59
2022/04/05 05:22:11;;;;;;;14.07;12.63;;;;;;;;;;10449645;27;20054;-59
2022/04/05 05:27:10;;;;;;;11.88;10.18;;;;;;;;;;10465321;27;20066;-60
2022/04/05 05:32:09;;;;;;;11.20;9.43;;;;;;;;;;10449862;27;20514;-61
2022/04/05 05:37:08;;;;;;;16.02;12.18;;;;;;;;;;10440470;27;20500;-59
2022/04/05 05:42:08;;;;;;;12.15;10.15;;;;;;;;;;10440231;27;20514;-61
2022/04/05 05:47:06;;;;;;;11.82;10.63;;;;;;;;;;10445253;27;20064;-61
2022/04/05 05:52:06;;;;;;;12.02;10.80;;;;;;;;;;10460809;27;20129;-60
2022/04/05 05:57:05;;;;;;;12.93;11.57;;;;;;;;;;10449138;27;20106;-60
2022/04/05 06:02:03;;;;;;;14.35;10.65;;;;;;;;;;10461605;27;20109;-60
2022/04/05 06:07:02;;;;;;;11.93;10.15;;;;;;;;;;10470069;27;20066;-59
2022/04/05 06:12:02;;;;;;;21.67;11.57;;;;;;;;;;10468127;27;20070;-61
2022/04/05 06:17:00;;;;;;;17.65;10.88;;;;;;;;;;10467341;27;20081;-61
2022/04/05 06:21:59;;;;;;;12.68;11.38;;;;;;;;;;10443777;27;20500;-61
2022/04/05 06:26:57;;;;;;;13.25;11.27;;;;;;;;;;10463203;27;20459;-61
2022/04/05 06:31:57;;;;;;;18.48;11.15;;;;;;;;;;10472232;27;20054;-61
2022/04/05 06:36:55;;;;;;;12.80;9.48;;;;;;;;;;10476968;27;20126;-61
2022/04/05 06:41:53;;;;;;;18.77;11.68;;;;;;;;;;10474085;27;20092;-61
2022/04/05 06:46:52;;;;;;;25.95;11.95;;;;;;;;;;10470491;27;20337;-61
2022/04/05 06:51:51;;;;;;;17.88;12.57;;;;;;;;;;10463860;27;20066;-61
2022/04/05 06:56:50;;;;;;;16.90;13.25;;;;;;;;;;10467019;27;20070;-60
2022/04/05 07:01:48;;;;;;;13.85;12.45;;;;;;;;;;10471623;27;20043;-60
2022/04/05 07:06:46;;;;;;;15.30;12.23;;;;;;;;;;10479671;27;20088;-61
2022/04/05 07:11:46;;;;;;;27.30;16.90;;;;;;;;;;10474329;27;20074;-61
2022/04/05 07:16:44;;;;;;;24.90;17.65;;;;;;;;;;10471138;27;20089;-61
2022/04/05 07:21:43;;;;;;;16.48;14.73;;;;;;;;;;10478456;27;20080;-61
2022/04/05 07:26:41;;;;;;;18.90;15.93;;;;;;;;;;10475131;27;20034;-61
2022/04/05 07:31:41;;;;;;;21.15;12.50;;;;;;;;;;10465781;27;20047;-61
2022/04/05 07:36:39;;;;;;;14.52;12.38;;;;;;;;;;10473858;27;20062;-61
2022/04/05 07:41:38;;;;;;;14.23;12.63;;;;;;;;;;10477824;27;20069;-61
2022/04/05 07:46:36;;;;;;;22.25;13.70;;;;;;;;;;10486431;27;20442;-61
2022/04/05 07:51:36;;;;;;;15.88;13.98;;;;;;;;;;10481713;27;20054;-61
2022/04/05 07:56:34;;;;;;;17.65;12.75;;;;;;;;;;10473320;27;20039;-60
2022/04/05 08:01:35;;;;;;;12.50;10.63;;;;;;;;;;10472754;27;20460;-60
2022/04/05 08:06:34;;;;;;;11.35;9.80;;;;;;;;;;10471651;27;20078;-61
2022/04/05 08:11:34;;;;;;;12.00;9.57;;;;;;;;;;10472734;27;20082;-60
2022/04/05 08:16:32;;;;;;;15.63;9.68;;;;;;;;;;10471336;27;20550;-61
2022/04/05 08:21:31;;;;;;;11.38;8.43;;;;;;;;;;10472142;27;20066;-61
2022/04/05 08:26:29;;;;;;;11.30;8.10;;;;;;;;;;10471860;27;20066;-61
2022/04/05 08:31:29;;;;;;;8.80;6.80;;;;;;;;;;10471942;27;20062;-60
2022/04/05 08:36:28;;;;;;;7.75;7.00;;;;;;;;;;10471833;27;20062;-61
2022/04/05 08:41:29;;;;;;;7.93;6.63;;;;;;;;;;10469779;27;20060;-60
2022/04/05 08:46:30;;;;;;;7.13;6.50;;;;;;;;;;10471193;27;20066;-60
2022/04/05 08:51:30;;;;;;;10.35;7.22;;;;;;;;;;10471077;27;20047;-61
2022/04/05 08:56:30;;;;;;;8.75;6.78;;;;;;;;;;10470756;27;20087;-60
2022/04/05 09:01:30;;;;;;;8.73;5.93;;;;;;;;;;10474926;27;20515;-59
2022/04/05 09:06:29;;;;;;;9.95;6.03;;;;;;;;;;10484156;27;20085;-60
2022/04/05 09:11:28;;;;;;;9.52;7.15;;;;;;;;;;10483517;27;20069;-60
2022/04/05 09:16:31;;;;;;;5.47;4.93;;;;;;;;;;10483020;27;20059;-60
2022/04/05 09:21:48;;;;;;;9.15;5.63;;;;;;;;;;10483565;27;20164;-61
2022/04/05 09:26:47;;;;;;;5.93;5.32;;;;;;;;;;10477850;27;20070;-61
2022/04/05 09:31:47;;;;;;;5.90;5.25;;;;;;;;;;10474393;27;20038;-61
2022/04/05 09:36:49;;;;;;;7.68;5.82;;;;;;;;;;10482921;27;20035;-61
2022/04/05 09:41:48;;;;;;;6.05;4.45;;;;;;;;;;10477560;27;20074;-61
2022/04/05 09:46:50;;;;;;;7.30;5.32;;;;;;;;;;10473566;27;20082;-61
2022/04/05 09:51:50;;;;;;;7.50;5.65;;;;;;;;;;10481241;27;20082;-61
2022/04/05 09:56:49;;;;;;;5.38;4.88;;;;;;;;;;10476502;27;20070;-61
2022/04/05 10:01:52;;;;;;;11.05;6.72;;;;;;;;;;10468747;27;20065;-62
2022/04/05 10:06:51;;;;;;;7.93;5.07;;;;;;;;;;10469003;27;20050;-62
2022/04/05 10:11:50;;;;;;;8.00;5.18;;;;;;;;;;10468491;27;20403;-61
2022/04/05 10:16:49;;;;;;;8.68;5.25;;;;;;;;;;10467217;27;20086;-62
2022/04/05 10:21:48;;;;;;;4.97;4.43;;;;;;;;;;10472992;27;20447;-62
2022/04/05 10:26:49;;;;;;;7.47;5.05;;;;;;;;;;10478570;27;20042;-61
2022/04/05 10:31:53;;;;;;;5.38;4.40;;;;;;;;;;10450756;27;20461;-62
2022/04/05 10:37:12;;;;;;;6.70;5.60;;;;;;;;;;10438575;27;20082;-61
2022/04/05 10:42:22;;;;;;;6.63;5.28;;;;;;;;;;10443012;27;20435;-62
2022/04/05 10:47:20;;;;;;;10.07;4.30;;;;;;;;;;10466950;27;20062;-62
2022/04/05 10:52:38;;;;;;;6.20;5.18;;;;;;;;;;10472147;27;20559;-62
2022/04/05 10:57:38;;;;;;;9.00;4.38;;;;;;;;;;10439247;27;20419;-62
2022/04/05 11:02:38;;;;;;;7.65;4.50;;;;;;;;;;10437044;28;20078;-62
2022/04/05 11:07:55;;;;;;;5.35;4.13;;;;;;;;;;10444478;27;20065;-59
2022/04/05 11:13:04;;;;;;;4.10;3.58;;;;;;;;;;10446619;27;20051;-60
2022/04/05 11:18:03;;;;;;;5.82;4.35;;;;;;;;;;10445085;27;20055;-61
2022/04/05 11:23:02;;;;;;;5.30;3.67;;;;;;;;;;10451663;27;20074;-61
2022/04/05 11:28:12;;;;;;;6.47;3.97;;;;;;;;;;10473711;27;20074;-61
2022/04/05 11:33:45;;;;;;;5.68;3.25;;;;;;;;;;10471073;27;20494;-60
2022/04/05 11:38:46;;;;;;;6.18;4.28;;;;;;;;;;10485444;27;20118;-61
2022/04/05 11:43:47;;;;;;;6.68;3.72;;;;;;;;;;10457068;27;20070;-61
2022/04/05 11:48:46;;;;;;;5.15;4.30;;;;;;;;;;10456948;27;20517;-60
2022/04/05 11:53:45;;;;;;;4.68;3.53;;;;;;;;;;10471931;27;20070;-60
2022/04/05 11:58:48;;;;;;;4.93;4.00;;;;;;;;;;10472521;27;20074;-61
2022/04/05 12:03:48;;;;;;;5.38;3.30;;;;;;;;;;10473187;27;20042;-60
2022/04/05 12:08:47;;;;;;;4.68;3.67;;;;;;;;;;10472845;27;20360;-60
2022/04/05 12:13:54;;;;;;;6.75;2.95;;;;;;;;;;10471925;27;20265;-60
2022/04/05 12:18:53;;;;;;;4.75;3.55;;;;;;;;;;10484843;27;20109;-62
2022/04/05 12:23:51;;;;;;;7.60;3.20;;;;;;;;;;10484385;27;20089;-62
2022/04/05 12:28:52;;;;;;;5.28;3.40;;;;;;;;;;10484562;27;20042;-62
2022/04/05 12:33:56;;;;;;;6.93;4.30;;;;;;;;;;10485886;27;20495;-62
2022/04/05 12:38:55;;;;;;;6.45;4.10;;;;;;;;;;10470103;27;20046;-62
2022/04/05 12:44:06;;;;;;;5.47;4.53;;;;;;;;;;10470292;27;20078;-63
2022/04/05 12:49:15;;;;;;;5.05;3.97;;;;;;;;;;10469679;27;20078;-63
2022/04/05 12:54:33;;;;;;;3.83;3.33;;;;;;;;;;10470090;27;20495;-63
2022/04/05 12:59:31;;;;;;;5.75;3.78;;;;;;;;;;10482833;27;20054;-63
2022/04/05 13:04:31;;;;;;;6.38;3.60;;;;;;;;;;10483719;27;20483;-63
2022/04/05 13:09:30;;;;;;;3.22;2.92;;;;;;;;;;10482897;27;20074;-63
2022/04/05 13:14:29;;;;;;;3.85;3.22;;;;;;;;;;10469783;27;20054;-62
2022/04/05 13:19:28;;;;;;;7.13;3.67;;;;;;;;;;10469600;27;20176;-63
2022/04/05 13:24:38;;;;;;;6.90;2.75;;;;;;;;;;10469410;27;20066;-62
2022/04/05 13:29:41;;;;;;;4.55;3.08;;;;;;;;;;10469020;27;20043;-62
2022/04/05 13:34:40;;;;;;;9.88;3.67;;;;;;;;;;10467935;27;20078;-62
2022/04/05 13:39:40;;;;;;;6.30;3.42;;;;;;;;;;10467750;27;20543;-63
2022/04/05 13:44:38;;;;;;;5.72;3.78;;;;;;;;;;10467654;27;20070;-62
2022/04/05 13:49:37;;;;;;;8.80;3.53;;;;;;;;;;10468231;27;20066;-63
2022/04/05 13:54:36;;;;;;;5.75;4.03;;;;;;;;;;10467507;27;20061;-63
2022/04/05 13:59:38;;;;;;;5.30;3.33;;;;;;;;;;10468139;27;20081;-62
2022/04/05 14:04:36;;;;;;;5.50;3.70;;;;;;;;;;10466522;27;20050;-63
2022/04/05 14:09:34;;;;;;;5.93;3.60;;;;;;;;;;10467048;27;20058;-63
2022/04/05 14:14:32;;;;;;;5.07;2.92;;;;;;;;;;10467366;27;20062;-63
2022/04/05 14:19:32;;;;;;;8.93;4.25;;;;;;;;;;10457769;27;20620;-62
2022/04/05 14:24:30;;;;;;;8.65;3.67;;;;;;;;;;10438396;27;20055;-63
2022/04/05 14:29:29;;;;;;;5.60;3.33;;;;;;;;;;10457115;27;20034;-63
2022/04/05 14:34:27;;;;;;;5.93;3.47;;;;;;;;;;10466603;27;20521;-63
2022/04/05 14:39:27;;;;;;;5.65;4.28;;;;;;;;;;10465243;27;20419;-63
2022/04/05 14:44:25;;;;;;;4.35;3.58;;;;;;;;;;10465965;27;20065;-64
2022/04/05 14:49:25;;;;;;;4.75;3.00;;;;;;;;;;10466461;27;20063;-63
2022/04/05 14:54:24;;;;;;;6.43;3.97;;;;;;;;;;10465747;27;20058;-62
2022/04/05 14:59:23;;;;;;;8.32;4.30;;;;;;;;;;10464840;27;20050;-62
2022/04/05 15:04:21;;;;;;;8.60;6.15;;;;;;;;;;10464775;27;20078;-62
2022/04/05 15:09:24;;;;;;;6.85;5.13;;;;;;;;;;10465391;27;20430;-62
2022/04/05 15:14:24;;;;;;;4.40;3.55;;;;;;;;;;10465153;27;20093;-63
2022/04/05 15:19:28;;;;;;;6.03;3.55;;;;;;;;;;10466060;27;20491;-62
2022/04/05 15:24:27;;;;;;;8.25;4.07;;;;;;;;;;10465357;27;20130;-63
2022/04/05 15:29:35;;;;;;;8.38;6.05;;;;;;;;;;10464922;27;20680;-63
2022/04/05 15:34:33;;;;;;;5.95;4.20;;;;;;;;;;10462088;27;20529;-64
2022/04/05 15:39:40;;;;;;;10.25;5.68;;;;;;;;;;10465902;27;20486;-63
2022/04/05 15:44:40;;;;;;;6.00;3.95;;;;;;;;;;10464694;27;20074;-62
2022/04/05 15:49:41;;;;;;;7.07;6.15;;;;;;;;;;10464228;27;20074;-63
2022/04/05 15:54:39;;;;;;;9.80;5.70;;;;;;;;;;10471398;27;20050;-62
2022/04/05 15:59:38;;;;;;;9.75;7.30;;;;;;;;;;10472641;27;20463;-63
2022/04/05 16:04:37;;;;;;;7.47;6.13;;;;;;;;;;10471401;27;20073;-62
2022/04/05 16:09:36;;;;;;;10.73;6.57;;;;;;;;;;10471160;27;20043;-63
2022/04/05 16:14:34;;;;;;;7.15;5.95;;;;;;;;;;10471581;27;20502;-63
2022/04/05 16:19:32;;;;;;;10.15;6.43;;;;;;;;;;10471833;27;20055;-64
2022/04/05 16:24:32;;;;;;;16.00;12.30;;;;;;;;;;10471062;27;20463;-63
2022/04/05 16:29:30;;;;;;;50.58;32.28;;;;;;;;;;10471047;27;20047;-63
2022/04/05 16:34:28;;;;;;;17.42;15.63;;;;;;;;;;10469695;27;20077;-62
2022/04/05 16:39:27;;;;;;;37.72;24.33;;;;;;;;;;10470839;27;20043;-63
2022/04/05 16:44:27;;;;;;;80.50;53.55;;;;;;;;;;10469904;27;20085;-63
2022/04/05 16:49:26;;;;;;;65.78;41.70;;;;;;;;;;10469945;27;20082;-63
2022/04/05 16:54:24;;;;;;;139.60;81.28;;;;;;;;;;10470171;27;20034;-63
2022/04/05 16:59:22;;;;;;;63.17;40.70;;;;;;;;;;10469412;27;20051;-63
2022/04/05 17:04:22;;;;;;;46.28;33.35;;;;;;;;;;10469392;27;20058;-63
2022/04/05 17:09:21;;;;;;;75.85;40.72;;;;;;;;;;10469710;27;20059;-64
2022/04/05 17:14:19;;;;;;;97.95;51.97;;;;;;;;;;10469549;27;20487;-63
2022/04/05 17:19:18;;;;;;;128.10;77.90;;;;;;;;;;10469709;27;20077;-63
2022/04/05 17:24:18;;;;;;;95.22;58.67;;;;;;;;;;10468791;27;20105;-64
2022/04/05 17:29:16;;;;;;;46.10;30.55;;;;;;;;;;10469001;27;20384;-63
2022/04/05 17:34:15;;;;;;;36.38;25.48;;;;;;;;;;10469771;27;20066;-64
2022/04/05 17:39:13;;;;;;;34.63;25.50;;;;;;;;;;10468811;27;20425;-63
2022/04/05 17:44:13;;;;;;;38.35;25.90;;;;;;;;;;10468200;27;20062;-63
2022/04/05 17:49:16;;;;;;;46.08;33.50;;;;;;;;;;10468332;27;20041;-64
2022/04/05 17:54:14;;;;;;;24.23;15.50;;;;;;;;;;10467914;27;20050;-64
2022/04/05 17:59:15;;;;;;;15.82;8.02;;;;;;;;;;10467742;27;20472;-63
2022/04/05 18:04:13;;;;;;;5.63;4.32;;;;;;;;;;10467181;27;20082;-63
2022/04/05 18:09:11;;;;;;;5.95;4.13;;;;;;;;;;10466768;27;20487;-62
2022/04/05 18:14:10;;;;;;;7.15;4.10;;;;;;;;;;10448026;27;20498;-62
2022/04/05 18:19:12;;;;;;;5.00;4.13;;;;;;;;;;10467179;27;20062;-63
2022/04/05 18:24:10;;;;;;;9.88;4.70;;;;;;;;;;10465488;27;20085;-63
2022/04/05 18:29:08;;;;;;;12.57;3.83;;;;;;;;;;10466596;27;20046;-63
2022/04/05 18:34:06;;;;;;;6.72;3.55;;;;;;;;;;10466491;27;20081;-63
2022/04/05 18:39:06;;;;;;;6.43;3.45;;;;;;;;;;10466513;27;20061;-62
2022/04/05 18:44:06;;;;;;;9.23;4.53;;;;;;;;;;10465036;27;20081;-63
2022/04/05 18:49:04;;;;;;;4.50;3.90;;;;;;;;;;10466683;27;20066;-64
2022/04/05 18:54:03;;;;;;;5.50;3.42;;;;;;;;;;10465577;27;20074;-64
2022/04/05 18:59:03;;;;;;;6.60;3.60;;;;;;;;;;10455796;27;20071;-63
2022/04/05 19:04:02;;;;;;;6.80;4.45;;;;;;;;;;10451911;27;20074;-63
2022/04/05 19:09:03;;;;;;;18.70;15.57;;;;;;;;;;10461427;27;20316;-63
2022/04/05 19:14:03;;;;;;;5.22;4.72;;;;;;;;;;10453539;27;20452;-63
2022/04/05 19:19:01;;;;;;;4.35;3.58;;;;;;;;;;10452403;27;20081;-64
2022/04/05 19:23:59;;;;;;;4.28;3.65;;;;;;;;;;10464137;27;20082;-62
2022/04/05 19:29:01;;;;;;;3.63;3.17;;;;;;;;;;10473042;27;20075;-64
2022/04/05 19:34:00;;;;;;;5.75;3.30;;;;;;;;;;10469126;27;20077;-64
2022/04/05 19:38:58;;;;;;;7.80;3.38;;;;;;;;;;10473465;27;20459;-63
2022/04/05 19:43:57;;;;;;;7.13;3.08;;;;;;;;;;10464638;27;20467;-62
2022/04/05 19:48:55;;;;;;;6.10;3.75;;;;;;;;;;10458717;27;20089;-62
2022/04/05 19:53:54;;;;;;;4.90;3.40;;;;;;;;;;10465316;27;20095;-61
2022/04/05 19:58:57;;;;;;;4.57;2.80;;;;;;;;;;10458541;27;20526;-63
2022/04/05 20:03:56;;;;;;;5.50;3.33;;;;;;;;;;10466754;27;20078;-63
2022/04/05 20:08:56;;;;;;;5.15;3.50;;;;;;;;;;10455168;27;20094;-63
2022/04/05 20:13:56;;;;;;;4.80;3.33;;;;;;;;;;10458626;27;20067;-61
2022/04/05 20:18:54;;;;;;;8.82;5.88;;;;;;;;;;10439315;27;20078;-63
2022/04/05 20:23:52;;;;;;;6.03;4.07;;;;;;;;;;10463704;27;20062;-62
2022/04/05 20:28:53;;;;;;;4.22;3.08;;;;;;;;;;10463437;27;20100;-62
2022/04/05 20:33:52;;;;;;;5.55;4.20;;;;;;;;;;10468591;27;20062;-63
2022/04/05 20:38:50;;;;;;;6.70;3.25;;;;;;;;;;10456046;27;20101;-62
2022/04/05 20:43:48;;;;;;;12.07;5.60;;;;;;;;;;10467675;27;20078;-62
2022/04/05 20:48:48;;;;;;;5.15;3.78;;;;;;;;;;10470167;27;20082;-63
2022/04/05 20:53:46;;;;;;;3.80;3.38;;;;;;;;;;10470211;27;20050;-63
2022/04/05 20:58:45;;;;;;;6.07;3.33;;;;;;;;;;10470188;27;20042;-62
2022/04/05 21:03:43;;;;;;;11.32;6.38;;;;;;;;;;10459304;27;20109;-63
2022/04/05 21:08:43;;;;;;;5.60;3.50;;;;;;;;;;10469688;27;20069;-63
2022/04/05 21:13:41;;;;;;;5.32;3.80;;;;;;;;;;10469549;27;20078;-63
2022/04/05 21:18:39;;;;;;;3.97;3.17;;;;;;;;;;10467138;27;20508;-63
2022/04/05 21:23:38;;;;;;;6.28;3.50;;;;;;;;;;10452709;27;20077;-64
2022/04/05 21:33:53;;;;;;;3.70;3.38;;;;;;;;;;10463675;27;20035;-61
2022/04/05 21:38:51;;;;;;;4.05;3.28;;;;;;;;;;10461837;27;20066;-63
2022/04/05 21:43:51;;;;;;;6.72;4.10;;;;;;;;;;10467013;27;20089;-62
2022/04/05 21:48:49;;;;;;;3.90;3.28;;;;;;;;;;10465394;27;20078;-63
2022/04/05 21:53:47;;;;;;;4.18;3.65;;;;;;;;;;10465821;27;20530;-63
2022/04/05 21:58:45;;;;;;;3.55;3.22;;;;;;;;;;10467862;27;20074;-63
2022/04/05 22:03:51;;;;;;;8.02;5.22;;;;;;;;;;10467881;27;20488;-63
2022/04/05 22:08:49;;;;;;;6.97;5.38;;;;;;;;;;10466409;27;20074;-64
2022/04/05 22:13:47;;;;;;;8.43;5.50;;;;;;;;;;10463726;27;20542;-63
2022/04/05 22:18:46;;;;;;;7.97;5.90;;;;;;;;;;10467138;27;20507;-63
2022/04/05 22:23:46;;;;;;;9.32;5.97;;;;;;;;;;10467481;27;20070;-63
2022/04/05 22:28:44;;;;;;;6.32;4.35;;;;;;;;;;10447762;27;20074;-63
2022/04/05 22:33:43;;;;;;;5.63;4.10;;;;;;;;;;10464327;27;20515;-63
2022/04/05 22:38:41;;;;;;;4.95;3.33;;;;;;;;;;10449887;27;20596;-63
2022/04/05 22:43:43;;;;;;;3.58;3.28;;;;;;;;;;10465057;27;20440;-64
2022/04/05 22:48:41;;;;;;;3.75;3.45;;;;;;;;;;10466366;27;20104;-64
2022/04/05 22:53:39;;;;;;;7.05;3.47;;;;;;;;;;10465521;27;20088;-64
2022/04/05 22:58:38;;;;;;;5.30;4.32;;;;;;;;;;10464729;27;20074;-64
2022/04/05 23:03:37;;;;;;;5.88;3.45;;;;;;;;;;10465664;27;20082;-64
2022/04/05 23:08:36;;;;;;;4.00;3.60;;;;;;;;;;10465010;27;20073;-64
2022/04/05 23:13:34;;;;;;;4.40;3.60;;;;;;;;;;10465370;27;20034;-63
2022/04/05 23:18:32;;;;;;;3.90;3.50;;;;;;;;;;10466082;27;20082;-62
2022/04/05 23:23:32;;;;;;;7.20;3.85;;;;;;;;;;10465389;27;20082;-62
2022/04/05 23:28:30;;;;;;;4.68;4.10;;;;;;;;;;10465811;27;20043;-64
2022/04/05 23:33:29;;;;;;;4.38;3.67;;;;;;;;;;10444833;27;20068;-63
2022/04/05 23:38:27;;;;;;;7.03;3.70;;;;;;;;;;10452478;27;20070;-63
2022/04/05 23:43:27;;;;;;;4.93;3.50;;;;;;;;;;10447335;27;20070;-63
2022/04/05 23:48:25;;;;;;;6.82;4.68;;;;;;;;;;10457785;27;20486;-63
2022/04/05 23:53:23;;;;;;;6.47;4.10;;;;;;;;;;10445827;27;20481;-63
2022/04/05 23:58:22;;;;;;;4.80;4.30;;;;;;;;;;10464020;27;20438;-63
